sensor_id;sensor_type;location;lat;lon;timestamp;P1;durP1;ratioP1;P2;durP2;ratioP2
4895;SDS011;2463;49.948;8.472;2023-04-25T00:02:16;92.53;;;6.80;;
4895;SDS011;2463;49.948;8.472;2023-04-25T00:04:44;93.10;;;6.80;;
4895;SDS011;2463;49.948;8.472;2023-04-25T00:07:11;93.47;;;7.30;;
4895;SDS011;2463;49.948;8.472;2023-04-25T00:09:38;98.22;;;8.48;;
4895;SDS011;2463;49.948;8.472;2023-04-25T00:12:05;94.93;;;7.18;;
4895;SDS011;2463;49.948;8.472;2023-04-25T00:14:32;93.80;;;7.90;;
4895;SDS011;2463;49.948;8.472;2023-04-25T00:17:01;93.82;;;7.43;;
4895;SDS011;2463;49.948;8.472;2023-04-25T00:19:28;92.43;;;6.63;;
4895;SDS011;2463;49.948;8.472;2023-04-25T00:21:55;94.82;;;7.97;;
4895;SDS011;2463;49.948;8.472;2023-04-25T00:24:22;95.03;;;8.35;;
4895;SDS011;2463;49.948;8.472;2023-04-25T00:26:48;94.55;;;8.00;;
4895;SDS011;2463;49.948;8.472;2023-04-25T00:29:15;94.57;;;7.70;;
4895;SDS011;2463;49.948;8.472;2023-04-25T00:31:42;97.25;;;8.20;;
4895;SDS011;2463;49.948;8.472;2023-04-25T00:34:09;92.72;;;7.57;;
4895;SDS011;2463;49.948;8.472;2023-04-25T00:36:36;98.45;;;8.57;;
4895;SDS011;2463;49.948;8.472;2023-04-25T00:39:04;95.93;;;7.85;;
4895;SDS011;2463;49.948;8.472;2023-04-25T00:41:30;94.95;;;7.95;;
4895;SDS011;2463;49.948;8.472;2023-04-25T00:43:57;94.18;;;7.90;;
4895;SDS011;2463;49.948;8.472;2023-04-25T00:46:25;95.18;;;8.23;;
4895;SDS011;2463;49.948;8.472;2023-04-25T00:48:52;94.43;;;8.00;;
4895;SDS011;2463;49.948;8.472;2023-04-25T00:51:21;95.13;;;8.32;;
4895;SDS011;2463;49.948;8.472;2023-04-25T00:53:48;94.53;;;8.05;;
4895;SDS011;2463;49.948;8.472;2023-04-25T00:56:17;97.13;;;8.65;;
4895;SDS011;2463;49.948;8.472;2023-04-25T00:58:44;95.43;;;8.25;;
4895;SDS011;2463;49.948;8.472;2023-04-25T01:01:11;96.28;;;8.35;;
4895;SDS011;2463;49.948;8.472;2023-04-25T01:03:39;95.32;;;7.90;;
4895;SDS011;2463;49.948;8.472;2023-04-25T01:06:08;97.32;;;9.20;;
4895;SDS011;2463;49.948;8.472;2023-04-25T01:08:36;95.38;;;8.18;;
4895;SDS011;2463;49.948;8.472;2023-04-25T01:11:04;95.80;;;8.73;;
4895;SDS011;2463;49.948;8.472;2023-04-25T01:13:31;95.07;;;8.30;;
4895;SDS011;2463;49.948;8.472;2023-04-25T01:15:59;95.10;;;8.15;;
4895;SDS011;2463;49.948;8.472;2023-04-25T01:18:27;94.70;;;7.85;;
4895;SDS011;2463;49.948;8.472;2023-04-25T01:20:54;95.35;;;7.68;;
4895;SDS011;2463;49.948;8.472;2023-04-25T01:23:21;95.57;;;8.25;;
4895;SDS011;2463;49.948;8.472;2023-04-25T01:25:49;95.15;;;8.57;;
4895;SDS011;2463;49.948;8.472;2023-04-25T01:28:17;96.15;;;8.50;;
4895;SDS011;2463;49.948;8.472;2023-04-25T01:30:44;95.28;;;8.30;;
4895;SDS011;2463;49.948;8.472;2023-04-25T01:33:11;97.30;;;8.20;;
4895;SDS011;2463;49.948;8.472;2023-04-25T01:35:40;96.97;;;8.43;;
4895;SDS011;2463;49.948;8.472;2023-04-25T01:38:06;95.10;;;8.25;;
4895;SDS011;2463;49.948;8.472;2023-04-25T01:40:33;95.18;;;8.80;;
4895;SDS011;2463;49.948;8.472;2023-04-25T01:43:02;97.53;;;8.98;;
4895;SDS011;2463;49.948;8.472;2023-04-25T01:45:28;96.53;;;9.13;;
4895;SDS011;2463;49.948;8.472;2023-04-25T01:47:55;95.45;;;8.75;;
4895;SDS011;2463;49.948;8.472;2023-04-25T01:50:25;95.07;;;8.45;;
4895;SDS011;2463;49.948;8.472;2023-04-25T01:52:52;95.60;;;8.30;;
4895;SDS011;2463;49.948;8.472;2023-04-25T01:55:19;97.63;;;8.80;;
4895;SDS011;2463;49.948;8.472;2023-04-25T01:57:46;97.47;;;8.52;;
4895;SDS011;2463;49.948;8.472;2023-04-25T02:00:13;95.53;;;8.70;;
4895;SDS011;2463;49.948;8.472;2023-04-25T02:02:40;94.70;;;8.18;;
4895;SDS011;2463;49.948;8.472;2023-04-25T02:05:07;95.32;;;8.30;;
4895;SDS011;2463;49.948;8.472;2023-04-25T02:07:34;98.10;;;8.60;;
4895;SDS011;2463;49.948;8.472;2023-04-25T02:10:00;94.82;;;8.32;;
4895;SDS011;2463;49.948;8.472;2023-04-25T02:12:27;94.25;;;8.18;;
4895;SDS011;2463;49.948;8.472;2023-04-25T02:14:54;96.65;;;8.07;;
4895;SDS011;2463;49.948;8.472;2023-04-25T02:17:21;93.97;;;8.00;;
4895;SDS011;2463;49.948;8.472;2023-04-25T02:19:47;95.63;;;8.07;;
4895;SDS011;2463;49.948;8.472;2023-04-25T02:22:14;96.88;;;8.80;;
4895;SDS011;2463;49.948;8.472;2023-04-25T02:24:41;100.95;;;8.38;;
4895;SDS011;2463;49.948;8.472;2023-04-25T02:27:07;95.57;;;8.68;;
4895;SDS011;2463;49.948;8.472;2023-04-25T02:29:34;97.53;;;9.02;;
4895;SDS011;2463;49.948;8.472;2023-04-25T02:32:01;96.85;;;8.68;;
4895;SDS011;2463;49.948;8.472;2023-04-25T02:34:28;95.68;;;8.35;;
4895;SDS011;2463;49.948;8.472;2023-04-25T02:36:54;95.45;;;8.93;;
4895;SDS011;2463;49.948;8.472;2023-04-25T02:39:21;99.25;;;8.95;;
4895;SDS011;2463;49.948;8.472;2023-04-25T02:41:48;98.20;;;9.43;;
4895;SDS011;2463;49.948;8.472;2023-04-25T02:44:15;95.43;;;8.23;;
4895;SDS011;2463;49.948;8.472;2023-04-25T02:46:41;98.20;;;10.63;;
4895;SDS011;2463;49.948;8.472;2023-04-25T02:49:08;96.32;;;8.73;;
4895;SDS011;2463;49.948;8.472;2023-04-25T02:51:34;96.40;;;8.45;;
4895;SDS011;2463;49.948;8.472;2023-04-25T02:54:01;96.47;;;8.93;;
4895;SDS011;2463;49.948;8.472;2023-04-25T02:56:28;95.00;;;8.50;;
4895;SDS011;2463;49.948;8.472;2023-04-25T02:58:54;96.88;;;9.23;;
4895;SDS011;2463;49.948;8.472;2023-04-25T03:01:21;96.07;;;8.43;;
4895;SDS011;2463;49.948;8.472;2023-04-25T03:03:48;95.95;;;7.75;;
4895;SDS011;2463;49.948;8.472;2023-04-25T03:06:15;96.95;;;9.25;;
4895;SDS011;2463;49.948;8.472;2023-04-25T03:08:42;97.45;;;8.63;;
4895;SDS011;2463;49.948;8.472;2023-04-25T03:11:09;96.32;;;9.00;;
4895;SDS011;2463;49.948;8.472;2023-04-25T03:13:36;96.50;;;9.15;;
4895;SDS011;2463;49.948;8.472;2023-04-25T03:16:03;94.50;;;7.95;;
4895;SDS011;2463;49.948;8.472;2023-04-25T03:18:30;96.70;;;8.75;;
4895;SDS011;2463;49.948;8.472;2023-04-25T03:20:57;97.93;;;8.90;;
4895;SDS011;2463;49.948;8.472;2023-04-25T03:23:23;98.38;;;9.80;;
4895;SDS011;2463;49.948;8.472;2023-04-25T03:25:50;96.65;;;8.52;;
4895;SDS011;2463;49.948;8.472;2023-04-25T03:28:17;97.25;;;8.75;;
4895;SDS011;2463;49.948;8.472;2023-04-25T03:30:44;97.00;;;9.02;;
4895;SDS011;2463;49.948;8.472;2023-04-25T03:33:10;97.65;;;10.00;;
4895;SDS011;2463;49.948;8.472;2023-04-25T03:35:37;96.88;;;9.13;;
4895;SDS011;2463;49.948;8.472;2023-04-25T03:38:04;96.95;;;9.45;;
4895;SDS011;2463;49.948;8.472;2023-04-25T03:40:30;95.95;;;8.93;;
4895;SDS011;2463;49.948;8.472;2023-04-25T03:42:57;96.95;;;9.63;;
4895;SDS011;2463;49.948;8.472;2023-04-25T03:45:24;97.45;;;9.73;;
4895;SDS011;2463;49.948;8.472;2023-04-25T03:47:50;98.47;;;9.82;;
4895;SDS011;2463;49.948;8.472;2023-04-25T03:50:17;102.70;;;9.80;;
4895;SDS011;2463;49.948;8.472;2023-04-25T03:52:44;96.82;;;8.95;;
4895;SDS011;2463;49.948;8.472;2023-04-25T03:55:10;98.85;;;9.88;;
4895;SDS011;2463;49.948;8.472;2023-04-25T03:57:37;97.10;;;9.32;;
4895;SDS011;2463;49.948;8.472;2023-04-25T04:00:04;97.40;;;8.93;;
4895;SDS011;2463;49.948;8.472;2023-04-25T04:02:32;98.90;;;9.18;;
4895;SDS011;2463;49.948;8.472;2023-04-25T04:05:01;97.82;;;9.40;;
4895;SDS011;2463;49.948;8.472;2023-04-25T04:07:29;99.60;;;9.60;;
4895;SDS011;2463;49.948;8.472;2023-04-25T04:09:55;97.30;;;9.40;;
4895;SDS011;2463;49.948;8.472;2023-04-25T04:12:22;102.40;;;10.23;;
4895;SDS011;2463;49.948;8.472;2023-04-25T04:14:49;98.60;;;9.90;;
4895;SDS011;2463;49.948;8.472;2023-04-25T04:17:15;101.28;;;9.90;;
4895;SDS011;2463;49.948;8.472;2023-04-25T04:19:42;106.35;;;10.48;;
4895;SDS011;2463;49.948;8.472;2023-04-25T04:22:09;100.10;;;10.60;;
4895;SDS011;2463;49.948;8.472;2023-04-25T04:24:36;102.53;;;11.13;;
4895;SDS011;2463;49.948;8.472;2023-04-25T04:27:02;104.20;;;10.55;;
4895;SDS011;2463;49.948;8.472;2023-04-25T04:29:30;103.40;;;11.82;;
4895;SDS011;2463;49.948;8.472;2023-04-25T04:31:57;107.55;;;11.63;;
4895;SDS011;2463;49.948;8.472;2023-04-25T04:34:24;106.38;;;11.98;;
4895;SDS011;2463;49.948;8.472;2023-04-25T04:36:51;100.93;;;11.60;;
4895;SDS011;2463;49.948;8.472;2023-04-25T04:39:18;106.30;;;11.98;;
4895;SDS011;2463;49.948;8.472;2023-04-25T04:41:45;103.20;;;12.18;;
4895;SDS011;2463;49.948;8.472;2023-04-25T04:44:11;102.57;;;11.85;;
4895;SDS011;2463;49.948;8.472;2023-04-25T04:46:38;105.47;;;10.82;;
4895;SDS011;2463;49.948;8.472;2023-04-25T04:49:09;97.82;;;9.23;;
4895;SDS011;2463;49.948;8.472;2023-04-25T04:51:36;101.22;;;9.80;;
4895;SDS011;2463;49.948;8.472;2023-04-25T04:54:03;102.70;;;9.85;;
4895;SDS011;2463;49.948;8.472;2023-04-25T04:56:30;102.03;;;9.77;;
4895;SDS011;2463;49.948;8.472;2023-04-25T04:58:57;99.80;;;9.45;;
4895;SDS011;2463;49.948;8.472;2023-04-25T05:01:25;97.60;;;8.93;;
4895;SDS011;2463;49.948;8.472;2023-04-25T05:03:52;102.90;;;9.05;;
4895;SDS011;2463;49.948;8.472;2023-04-25T05:06:20;103.80;;;9.70;;
4895;SDS011;2463;49.948;8.472;2023-04-25T05:08:47;100.47;;;8.90;;
4895;SDS011;2463;49.948;8.472;2023-04-25T05:11:13;102.18;;;9.73;;
4895;SDS011;2463;49.948;8.472;2023-04-25T05:13:40;101.28;;;8.57;;
4895;SDS011;2463;49.948;8.472;2023-04-25T05:16:07;108.03;;;9.90;;
4895;SDS011;2463;49.948;8.472;2023-04-25T05:18:33;105.68;;;9.18;;
4895;SDS011;2463;49.948;8.472;2023-04-25T05:21:01;99.55;;;8.70;;
4895;SDS011;2463;49.948;8.472;2023-04-25T05:23:28;103.72;;;9.40;;
4895;SDS011;2463;49.948;8.472;2023-04-25T05:25:58;103.57;;;9.93;;
4895;SDS011;2463;49.948;8.472;2023-04-25T05:28:25;101.85;;;9.27;;
4895;SDS011;2463;49.948;8.472;2023-04-25T05:30:52;102.85;;;10.75;;
4895;SDS011;2463;49.948;8.472;2023-04-25T05:33:19;101.85;;;9.80;;
4895;SDS011;2463;49.948;8.472;2023-04-25T05:35:46;105.88;;;10.55;;
4895;SDS011;2463;49.948;8.472;2023-04-25T05:38:12;100.28;;;9.75;;
4895;SDS011;2463;49.948;8.472;2023-04-25T05:40:39;105.80;;;10.15;;
4895;SDS011;2463;49.948;8.472;2023-04-25T05:43:06;110.32;;;10.27;;
4895;SDS011;2463;49.948;8.472;2023-04-25T05:45:33;107.25;;;12.57;;
4895;SDS011;2463;49.948;8.472;2023-04-25T05:47:59;102.45;;;9.30;;
4895;SDS011;2463;49.948;8.472;2023-04-25T05:50:26;102.03;;;10.35;;
4895;SDS011;2463;49.948;8.472;2023-04-25T05:52:53;101.05;;;9.50;;
4895;SDS011;2463;49.948;8.472;2023-04-25T05:55:20;102.00;;;9.00;;
4895;SDS011;2463;49.948;8.472;2023-04-25T05:57:46;97.82;;;8.65;;
4895;SDS011;2463;49.948;8.472;2023-04-25T06:00:16;99.03;;;9.30;;
4895;SDS011;2463;49.948;8.472;2023-04-25T06:02:43;98.32;;;8.45;;
4895;SDS011;2463;49.948;8.472;2023-04-25T06:05:10;101.80;;;8.55;;
4895;SDS011;2463;49.948;8.472;2023-04-25T06:07:37;101.18;;;8.90;;
4895;SDS011;2463;49.948;8.472;2023-04-25T06:10:04;103.40;;;8.35;;
4895;SDS011;2463;49.948;8.472;2023-04-25T06:12:32;100.25;;;8.80;;
4895;SDS011;2463;49.948;8.472;2023-04-25T06:14:59;95.28;;;8.18;;
4895;SDS011;2463;49.948;8.472;2023-04-25T06:17:27;94.05;;;7.60;;
4895;SDS011;2463;49.948;8.472;2023-04-25T06:19:54;96.95;;;7.55;;
4895;SDS011;2463;49.948;8.472;2023-04-25T06:22:20;100.05;;;7.78;;
4895;SDS011;2463;49.948;8.472;2023-04-25T06:24:47;94.05;;;7.10;;
4895;SDS011;2463;49.948;8.472;2023-04-25T06:27:14;102.53;;;8.10;;
4895;SDS011;2463;49.948;8.472;2023-04-25T06:29:42;99.68;;;7.78;;
4895;SDS011;2463;49.948;8.472;2023-04-25T06:32:09;99.57;;;8.40;;
4895;SDS011;2463;49.948;8.472;2023-04-25T06:34:35;96.70;;;8.30;;
4895;SDS011;2463;49.948;8.472;2023-04-25T06:37:02;95.15;;;8.18;;
4895;SDS011;2463;49.948;8.472;2023-04-25T06:39:28;96.47;;;8.07;;
4895;SDS011;2463;49.948;8.472;2023-04-25T06:41:55;95.50;;;7.80;;
4895;SDS011;2463;49.948;8.472;2023-04-25T06:44:22;98.55;;;8.48;;
4895;SDS011;2463;49.948;8.472;2023-04-25T06:46:50;99.05;;;7.60;;
4895;SDS011;2463;49.948;8.472;2023-04-25T06:49:17;97.40;;;7.10;;
4895;SDS011;2463;49.948;8.472;2023-04-25T06:51:43;102.65;;;7.95;;
4895;SDS011;2463;49.948;8.472;2023-04-25T06:54:10;99.18;;;7.07;;
4895;SDS011;2463;49.948;8.472;2023-04-25T06:56:37;91.20;;;6.88;;
4895;SDS011;2463;49.948;8.472;2023-04-25T06:59:04;92.97;;;6.68;;
4895;SDS011;2463;49.948;8.472;2023-04-25T07:01:30;93.40;;;7.47;;
4895;SDS011;2463;49.948;8.472;2023-04-25T07:03:57;93.15;;;6.72;;
4895;SDS011;2463;49.948;8.472;2023-04-25T07:06:24;96.20;;;7.35;;
4895;SDS011;2463;49.948;8.472;2023-04-25T07:08:52;93.72;;;7.10;;
4895;SDS011;2463;49.948;8.472;2023-04-25T07:11:18;94.97;;;7.43;;
4895;SDS011;2463;49.948;8.472;2023-04-25T07:13:45;96.95;;;7.60;;
4895;SDS011;2463;49.948;8.472;2023-04-25T07:16:12;98.50;;;7.00;;
4895;SDS011;2463;49.948;8.472;2023-04-25T07:18:39;92.68;;;6.93;;
4895;SDS011;2463;49.948;8.472;2023-04-25T07:21:05;93.95;;;6.90;;
4895;SDS011;2463;49.948;8.472;2023-04-25T07:23:32;92.28;;;7.57;;
4895;SDS011;2463;49.948;8.472;2023-04-25T07:25:59;92.45;;;7.03;;
4895;SDS011;2463;49.948;8.472;2023-04-25T07:28:25;97.40;;;7.20;;
4895;SDS011;2463;49.948;8.472;2023-04-25T07:30:52;96.78;;;7.75;;
4895;SDS011;2463;49.948;8.472;2023-04-25T07:33:19;94.55;;;6.90;;
4895;SDS011;2463;49.948;8.472;2023-04-25T07:35:46;92.18;;;6.90;;
4895;SDS011;2463;49.948;8.472;2023-04-25T07:38:13;93.10;;;7.07;;
4895;SDS011;2463;49.948;8.472;2023-04-25T07:40:40;93.82;;;7.35;;
4895;SDS011;2463;49.948;8.472;2023-04-25T07:43:06;91.35;;;6.50;;
4895;SDS011;2463;49.948;8.472;2023-04-25T07:45:33;95.97;;;7.00;;
4895;SDS011;2463;49.948;8.472;2023-04-25T07:48:00;94.20;;;6.43;;
4895;SDS011;2463;49.948;8.472;2023-04-25T07:50:27;96.40;;;6.80;;
4895;SDS011;2463;49.948;8.472;2023-04-25T07:52:53;91.35;;;6.97;;
4895;SDS011;2463;49.948;8.472;2023-04-25T07:55:20;93.00;;;6.57;;
4895;SDS011;2463;49.948;8.472;2023-04-25T07:57:47;91.60;;;6.80;;
4895;SDS011;2463;49.948;8.472;2023-04-25T08:00:13;95.95;;;6.40;;
4895;SDS011;2463;49.948;8.472;2023-04-25T08:02:41;90.75;;;6.18;;
4895;SDS011;2463;49.948;8.472;2023-04-25T08:05:08;96.45;;;7.00;;
4895;SDS011;2463;49.948;8.472;2023-04-25T08:07:38;97.35;;;7.00;;
4895;SDS011;2463;49.948;8.472;2023-04-25T08:10:05;92.90;;;5.65;;
4895;SDS011;2463;49.948;8.472;2023-04-25T08:12:32;89.10;;;5.47;;
4895;SDS011;2463;49.948;8.472;2023-04-25T08:14:59;93.35;;;6.07;;
4895;SDS011;2463;49.948;8.472;2023-04-25T08:17:26;92.68;;;6.35;;
4895;SDS011;2463;49.948;8.472;2023-04-25T08:19:53;92.30;;;5.70;;
4895;SDS011;2463;49.948;8.472;2023-04-25T08:22:20;91.68;;;6.10;;
4895;SDS011;2463;49.948;8.472;2023-04-25T08:24:46;91.15;;;5.60;;
4895;SDS011;2463;49.948;8.472;2023-04-25T08:27:13;89.93;;;5.10;;
4895;SDS011;2463;49.948;8.472;2023-04-25T08:29:41;90.13;;;5.03;;
4895;SDS011;2463;49.948;8.472;2023-04-25T08:32:08;89.05;;;5.40;;
4895;SDS011;2463;49.948;8.472;2023-04-25T08:34:34;89.10;;;5.40;;
4895;SDS011;2463;49.948;8.472;2023-04-25T08:37:02;87.68;;;4.50;;
4895;SDS011;2463;49.948;8.472;2023-04-25T08:39:30;93.50;;;5.20;;
4895;SDS011;2463;49.948;8.472;2023-04-25T08:41:57;88.50;;;4.80;;
4895;SDS011;2463;49.948;8.472;2023-04-25T08:44:23;87.70;;;4.50;;
4895;SDS011;2463;49.948;8.472;2023-04-25T08:46:51;91.53;;;5.20;;
4895;SDS011;2463;49.948;8.472;2023-04-25T08:49:19;88.97;;;4.78;;
4895;SDS011;2463;49.948;8.472;2023-04-25T08:51:46;91.85;;;4.63;;
4895;SDS011;2463;49.948;8.472;2023-04-25T08:54:14;87.90;;;4.35;;
4895;SDS011;2463;49.948;8.472;2023-04-25T08:57:01;86.57;;;4.55;;
4895;SDS011;2463;49.948;8.472;2023-04-25T08:59:30;87.28;;;5.10;;
4895;SDS011;2463;49.948;8.472;2023-04-25T09:01:58;87.25;;;4.57;;
4895;SDS011;2463;49.948;8.472;2023-04-25T09:04:24;87.13;;;4.63;;
4895;SDS011;2463;49.948;8.472;2023-04-25T09:06:51;86.65;;;4.32;;
4895;SDS011;2463;49.948;8.472;2023-04-25T09:09:18;90.68;;;4.65;;
4895;SDS011;2463;49.948;8.472;2023-04-25T09:11:45;88.20;;;4.32;;
4895;SDS011;2463;49.948;8.472;2023-04-25T09:14:21;87.28;;;4.80;;
4895;SDS011;2463;49.948;8.472;2023-04-25T09:19:33;91.30;;;4.80;;
4895;SDS011;2463;49.948;8.472;2023-04-25T09:22:07;89.03;;;5.03;;
4895;SDS011;2463;49.948;8.472;2023-04-25T09:24:38;88.05;;;4.65;;
4895;SDS011;2463;49.948;8.472;2023-04-25T09:27:09;88.38;;;4.78;;
4895;SDS011;2463;49.948;8.472;2023-04-25T09:29:40;92.22;;;4.70;;
4895;SDS011;2463;49.948;8.472;2023-04-25T09:32:10;87.07;;;4.70;;
4895;SDS011;2463;49.948;8.472;2023-04-25T09:34:49;87.65;;;5.05;;
4895;SDS011;2463;49.948;8.472;2023-04-25T09:37:24;89.97;;;5.30;;
4895;SDS011;2463;49.948;8.472;2023-04-25T09:39:57;95.15;;;7.28;;
4895;SDS011;2463;49.948;8.472;2023-04-25T09:42:31;90.15;;;5.00;;
4895;SDS011;2463;49.948;8.472;2023-04-25T09:45:00;87.50;;;4.90;;
4895;SDS011;2463;49.948;8.472;2023-04-25T09:47:28;87.45;;;5.10;;
4895;SDS011;2463;49.948;8.472;2023-04-25T09:49:55;90.35;;;5.30;;
4895;SDS011;2463;49.948;8.472;2023-04-25T09:52:22;92.20;;;5.68;;
4895;SDS011;2463;49.948;8.472;2023-04-25T09:54:51;90.45;;;5.60;;
4895;SDS011;2463;49.948;8.472;2023-04-25T09:57:22;89.18;;;5.50;;
4895;SDS011;2463;49.948;8.472;2023-04-25T09:59:51;92.47;;;5.95;;
4895;SDS011;2463;49.948;8.472;2023-04-25T10:02:20;96.65;;;5.93;;
4895;SDS011;2463;49.948;8.472;2023-04-25T10:04:49;88.35;;;5.72;;
4895;SDS011;2463;49.948;8.472;2023-04-25T10:07:19;90.78;;;5.60;;
4895;SDS011;2463;49.948;8.472;2023-04-25T10:09:48;96.55;;;6.40;;
4895;SDS011;2463;49.948;8.472;2023-04-25T10:12:17;93.90;;;6.32;;
4895;SDS011;2463;49.948;8.472;2023-04-25T10:14:45;90.22;;;6.00;;
4895;SDS011;2463;49.948;8.472;2023-04-25T10:17:12;91.95;;;5.30;;
4895;SDS011;2463;49.948;8.472;2023-04-25T10:19:40;90.47;;;6.18;;
4895;SDS011;2463;49.948;8.472;2023-04-25T10:22:08;90.95;;;6.05;;
4895;SDS011;2463;49.948;8.472;2023-04-25T10:24:40;91.40;;;6.45;;
4895;SDS011;2463;49.948;8.472;2023-04-25T10:27:08;92.38;;;6.65;;
4895;SDS011;2463;49.948;8.472;2023-04-25T10:29:36;93.60;;;6.80;;
4895;SDS011;2463;49.948;8.472;2023-04-25T10:32:03;95.35;;;7.22;;
4895;SDS011;2463;49.948;8.472;2023-04-25T10:34:43;92.28;;;6.95;;
4895;SDS011;2463;49.948;8.472;2023-04-25T10:37:13;92.75;;;7.20;;
4895;SDS011;2463;49.948;8.472;2023-04-25T10:39:40;94.00;;;6.80;;
4895;SDS011;2463;49.948;8.472;2023-04-25T10:42:07;91.53;;;6.80;;
4895;SDS011;2463;49.948;8.472;2023-04-25T10:44:34;92.80;;;6.60;;
4895;SDS011;2463;49.948;8.472;2023-04-25T10:47:03;91.07;;;6.82;;
4895;SDS011;2463;49.948;8.472;2023-04-25T10:49:34;94.80;;;6.78;;
4895;SDS011;2463;49.948;8.472;2023-04-25T10:52:11;91.93;;;6.65;;
4895;SDS011;2463;49.948;8.472;2023-04-25T10:54:43;93.57;;;6.80;;
4895;SDS011;2463;49.948;8.472;2023-04-25T10:59:59;96.20;;;7.05;;
4895;SDS011;2463;49.948;8.472;2023-04-25T11:02:32;89.53;;;5.93;;
4895;SDS011;2463;49.948;8.472;2023-04-25T11:05:03;90.15;;;5.95;;
4895;SDS011;2463;49.948;8.472;2023-04-25T11:10:02;91.45;;;6.30;;
4895;SDS011;2463;49.948;8.472;2023-04-25T11:12:30;97.78;;;6.38;;
4895;SDS011;2463;49.948;8.472;2023-04-25T11:15:02;91.15;;;5.50;;
4895;SDS011;2463;49.948;8.472;2023-04-25T11:17:32;92.95;;;6.32;;
4895;SDS011;2463;49.948;8.472;2023-04-25T11:20:00;91.90;;;6.65;;
4895;SDS011;2463;49.948;8.472;2023-04-25T11:22:27;91.00;;;6.93;;
4895;SDS011;2463;49.948;8.472;2023-04-25T11:24:54;95.30;;;6.45;;
4895;SDS011;2463;49.948;8.472;2023-04-25T11:27:21;88.97;;;5.80;;
4895;SDS011;2463;49.948;8.472;2023-04-25T11:29:48;93.28;;;8.02;;
4895;SDS011;2463;49.948;8.472;2023-04-25T11:32:15;92.70;;;5.82;;
4895;SDS011;2463;49.948;8.472;2023-04-25T11:34:43;90.30;;;5.90;;
4895;SDS011;2463;49.948;8.472;2023-04-25T11:37:11;91.30;;;7.00;;
4895;SDS011;2463;49.948;8.472;2023-04-25T11:39:42;92.35;;;5.82;;
4895;SDS011;2463;49.948;8.472;2023-04-25T11:42:11;92.45;;;5.85;;
4895;SDS011;2463;49.948;8.472;2023-04-25T11:44:39;92.30;;;5.93;;
4895;SDS011;2463;49.948;8.472;2023-04-25T11:47:06;93.00;;;6.60;;
4895;SDS011;2463;49.948;8.472;2023-04-25T11:49:33;91.90;;;5.40;;
4895;SDS011;2463;49.948;8.472;2023-04-25T11:52:02;95.07;;;6.95;;
4895;SDS011;2463;49.948;8.472;2023-04-25T11:54:29;94.60;;;6.50;;
4895;SDS011;2463;49.948;8.472;2023-04-25T11:56:55;94.70;;;6.13;;
4895;SDS011;2463;49.948;8.472;2023-04-25T11:59:23;93.60;;;6.10;;
4895;SDS011;2463;49.948;8.472;2023-04-25T12:01:51;91.78;;;6.10;;
4895;SDS011;2463;49.948;8.472;2023-04-25T12:04:19;92.30;;;5.65;;
4895;SDS011;2463;49.948;8.472;2023-04-25T12:06:52;91.93;;;6.60;;
4895;SDS011;2463;49.948;8.472;2023-04-25T12:09:27;91.90;;;6.68;;
4895;SDS011;2463;49.948;8.472;2023-04-25T12:11:58;91.35;;;6.72;;
4895;SDS011;2463;49.948;8.472;2023-04-25T12:14:30;92.63;;;5.90;;
4895;SDS011;2463;49.948;8.472;2023-04-25T12:17:02;93.90;;;6.47;;
4895;SDS011;2463;49.948;8.472;2023-04-25T12:19:33;93.47;;;5.85;;
4895;SDS011;2463;49.948;8.472;2023-04-25T12:22:01;99.10;;;6.38;;
4895;SDS011;2463;49.948;8.472;2023-04-25T12:24:29;94.35;;;6.35;;
4895;SDS011;2463;49.948;8.472;2023-04-25T12:27:04;90.65;;;6.18;;
4895;SDS011;2463;49.948;8.472;2023-04-25T12:29:32;89.93;;;6.18;;
4895;SDS011;2463;49.948;8.472;2023-04-25T12:32:14;90.10;;;5.93;;
4895;SDS011;2463;49.948;8.472;2023-04-25T12:34:41;93.70;;;6.88;;
4895;SDS011;2463;49.948;8.472;2023-04-25T12:37:08;92.75;;;6.38;;
4895;SDS011;2463;49.948;8.472;2023-04-25T12:39:35;95.80;;;7.13;;
4895;SDS011;2463;49.948;8.472;2023-04-25T12:42:01;91.03;;;5.78;;
4895;SDS011;2463;49.948;8.472;2023-04-25T12:44:32;91.55;;;5.90;;
4895;SDS011;2463;49.948;8.472;2023-04-25T12:46:58;92.55;;;5.72;;
4895;SDS011;2463;49.948;8.472;2023-04-25T12:49:26;93.55;;;5.75;;
4895;SDS011;2463;49.948;8.472;2023-04-25T12:51:52;93.43;;;6.43;;
4895;SDS011;2463;49.948;8.472;2023-04-25T12:54:19;92.40;;;6.03;;
4895;SDS011;2463;49.948;8.472;2023-04-25T12:56:46;91.97;;;5.82;;
4895;SDS011;2463;49.948;8.472;2023-04-25T12:59:13;91.07;;;5.70;;
4895;SDS011;2463;49.948;8.472;2023-04-25T13:01:40;89.57;;;5.88;;
4895;SDS011;2463;49.948;8.472;2023-04-25T13:04:06;93.43;;;5.80;;
4895;SDS011;2463;49.948;8.472;2023-04-25T13:06:33;88.57;;;5.75;;
4895;SDS011;2463;49.948;8.472;2023-04-25T13:09:00;90.50;;;6.00;;
4895;SDS011;2463;49.948;8.472;2023-04-25T13:11:27;90.53;;;5.95;;
4895;SDS011;2463;49.948;8.472;2023-04-25T13:13:59;95.65;;;6.40;;
4895;SDS011;2463;49.948;8.472;2023-04-25T13:16:26;88.47;;;5.25;;
4895;SDS011;2463;49.948;8.472;2023-04-25T13:18:53;89.05;;;5.20;;
4895;SDS011;2463;49.948;8.472;2023-04-25T13:21:22;92.60;;;5.80;;
4895;SDS011;2463;49.948;8.472;2023-04-25T13:23:48;91.07;;;5.28;;
4895;SDS011;2463;49.948;8.472;2023-04-25T13:26:15;88.45;;;5.45;;
4895;SDS011;2463;49.948;8.472;2023-04-25T13:28:42;99.47;;;6.30;;
4895;SDS011;2463;49.948;8.472;2023-04-25T13:31:10;88.93;;;4.95;;
4895;SDS011;2463;49.948;8.472;2023-04-25T13:33:37;90.57;;;5.60;;
4895;SDS011;2463;49.948;8.472;2023-04-25T13:36:03;92.03;;;5.82;;
4895;SDS011;2463;49.948;8.472;2023-04-25T13:38:30;90.00;;;5.68;;
4895;SDS011;2463;49.948;8.472;2023-04-25T13:40:57;92.32;;;5.68;;
4895;SDS011;2463;49.948;8.472;2023-04-25T13:43:23;98.07;;;5.55;;
4895;SDS011;2463;49.948;8.472;2023-04-25T13:45:50;93.90;;;5.50;;
4895;SDS011;2463;49.948;8.472;2023-04-25T13:48:18;95.93;;;5.60;;
4895;SDS011;2463;49.948;8.472;2023-04-25T13:50:45;89.97;;;5.60;;
4895;SDS011;2463;49.948;8.472;2023-04-25T13:53:12;93.55;;;5.70;;
4895;SDS011;2463;49.948;8.472;2023-04-25T13:55:39;89.65;;;5.18;;
4895;SDS011;2463;49.948;8.472;2023-04-25T13:58:05;92.85;;;6.00;;
4895;SDS011;2463;49.948;8.472;2023-04-25T14:00:38;91.28;;;5.25;;
4895;SDS011;2463;49.948;8.472;2023-04-25T14:03:06;90.57;;;5.05;;
4895;SDS011;2463;49.948;8.472;2023-04-25T14:05:36;89.78;;;5.10;;
4895;SDS011;2463;49.948;8.472;2023-04-25T14:08:08;90.10;;;5.40;;
4895;SDS011;2463;49.948;8.472;2023-04-25T14:10:36;91.90;;;5.38;;
4895;SDS011;2463;49.948;8.472;2023-04-25T14:13:03;90.88;;;5.55;;
4895;SDS011;2463;49.948;8.472;2023-04-25T14:15:33;89.28;;;5.30;;
4895;SDS011;2463;49.948;8.472;2023-04-25T14:18:01;90.50;;;5.57;;
4895;SDS011;2463;49.948;8.472;2023-04-25T14:20:28;90.15;;;6.22;;
4895;SDS011;2463;49.948;8.472;2023-04-25T14:22:55;90.05;;;5.30;;
4895;SDS011;2463;49.948;8.472;2023-04-25T14:25:24;91.88;;;5.60;;
4895;SDS011;2463;49.948;8.472;2023-04-25T14:27:51;92.20;;;5.80;;
4895;SDS011;2463;49.948;8.472;2023-04-25T14:30:19;91.22;;;5.90;;
4895;SDS011;2463;49.948;8.472;2023-04-25T14:32:47;90.50;;;5.65;;
4895;SDS011;2463;49.948;8.472;2023-04-25T14:35:15;91.32;;;5.32;;
4895;SDS011;2463;49.948;8.472;2023-04-25T14:37:42;93.10;;;6.13;;
4895;SDS011;2463;49.948;8.472;2023-04-25T14:40:09;91.40;;;5.35;;
4895;SDS011;2463;49.948;8.472;2023-04-25T14:42:37;94.05;;;5.72;;
4895;SDS011;2463;49.948;8.472;2023-04-25T14:45:04;92.10;;;5.63;;
4895;SDS011;2463;49.948;8.472;2023-04-25T14:47:38;91.25;;;5.07;;
4895;SDS011;2463;49.948;8.472;2023-04-25T14:50:06;93.75;;;5.45;;
4895;SDS011;2463;49.948;8.472;2023-04-25T14:52:33;94.05;;;5.65;;
4895;SDS011;2463;49.948;8.472;2023-04-25T14:55:00;87.95;;;4.70;;
4895;SDS011;2463;49.948;8.472;2023-04-25T14:57:31;88.95;;;5.57;;
4895;SDS011;2463;49.948;8.472;2023-04-25T14:59:58;90.28;;;5.05;;
4895;SDS011;2463;49.948;8.472;2023-04-25T15:02:25;89.35;;;4.95;;
4895;SDS011;2463;49.948;8.472;2023-04-25T15:04:53;91.00;;;5.50;;
4895;SDS011;2463;49.948;8.472;2023-04-25T15:07:20;89.18;;;5.25;;
4895;SDS011;2463;49.948;8.472;2023-04-25T15:09:48;90.20;;;5.20;;